sensor_id;sensor_type;location;lat;lon;timestamp;pressure;altitude;pressure_sealevel;temperature;humidity
31357;BME280;60001;48.404;11.738;2023-07-08T00:00:32;96535.81;;;22.92;36.44
31357;BME280;60001;48.404;11.738;2023-07-08T00:02:07;96533.44;;;22.91;36.37
31357;BME280;60001;48.404;11.738;2023-07-08T00:03:40;96530.75;;;22.91;36.28
31357;BME280;60001;48.404;11.738;2023-07-08T00:05:13;96546.56;;;22.92;36.85
31357;BME280;60001;48.404;11.738;2023-07-08T00:06:44;96536.59;;;22.93;36.84
31357;BME280;60001;48.404;11.738;2023-07-08T00:08:20;96533.09;;;22.92;36.95
31357;BME280;60001;48.404;11.738;2023-07-08T00:09:51;96537.72;;;22.92;37.17
31357;BME280;60001;48.404;11.738;2023-07-08T00:11:22;96527.72;;;22.92;37.24
31357;BME280;60001;48.404;11.738;2023-07-08T00:12:56;96526.47;;;22.90;36.81
31357;BME280;60001;48.404;11.738;2023-07-08T00:14:28;96524.91;;;22.89;37.30
31357;BME280;60001;48.404;11.738;2023-07-08T00:15:59;96524.72;;;22.85;36.62
31357;BME280;60001;48.404;11.738;2023-07-08T00:17:30;96513.34;;;22.80;36.77
31357;BME280;60001;48.404;11.738;2023-07-08T00:19:01;96532.53;;;22.78;36.80
31357;BME280;60001;48.404;11.738;2023-07-08T00:20:37;96530.28;;;22.80;37.57
31357;BME280;60001;48.404;11.738;2023-07-08T00:22:11;96522.34;;;22.84;37.10
31357;BME280;60001;48.404;11.738;2023-07-08T00:23:48;96516.53;;;22.82;37.44
31357;BME280;60001;48.404;11.738;2023-07-08T00:25:21;96512.22;;;22.81;36.61
31357;BME280;60001;48.404;11.738;2023-07-08T00:26:52;96513.69;;;22.78;37.03
31357;BME280;60001;48.404;11.738;2023-07-08T00:28:24;96511.63;;;22.75;36.61
31357;BME280;60001;48.404;11.738;2023-07-08T00:29:55;96515.28;;;22.70;37.03
31357;BME280;60001;48.404;11.738;2023-07-08T00:31:27;96510.56;;;22.67;36.66
31357;BME280;60001;48.404;11.738;2023-07-08T00:33:02;96516.91;;;22.63;37.16
31357;BME280;60001;48.404;11.738;2023-07-08T00:34:33;96513.63;;;22.57;37.05
31357;BME280;60001;48.404;11.738;2023-07-08T00:36:11;96523.59;;;22.57;37.14
31357;BME280;60001;48.404;11.738;2023-07-08T00:37:42;96525.63;;;22.60;37.47
31357;BME280;60001;48.404;11.738;2023-07-08T00:39:18;96523.09;;;22.63;37.99
31357;BME280;60001;48.404;11.738;2023-07-08T00:40:50;96527.03;;;22.66;38.07
31357;BME280;60001;48.404;11.738;2023-07-08T00:42:24;96518.50;;;22.64;37.71
31357;BME280;60001;48.404;11.738;2023-07-08T00:43:56;96518.94;;;22.66;38.04
31357;BME280;60001;48.404;11.738;2023-07-08T00:45:38;96517.19;;;22.70;38.06
31357;BME280;60001;48.404;11.738;2023-07-08T00:47:14;96517.19;;;22.70;37.75
31357;BME280;60001;48.404;11.738;2023-07-08T00:48:45;96517.03;;;22.66;37.42
31357;BME280;60001;48.404;11.738;2023-07-08T00:50:18;96523.88;;;22.64;37.76
31357;BME280;60001;48.404;11.738;2023-07-08T00:51:49;96517.25;;;22.61;38.43
31357;BME280;60001;48.404;11.738;2023-07-08T00:53:30;96516.47;;;22.61;37.96
31357;BME280;60001;48.404;11.738;2023-07-08T00:55:07;96520.25;;;22.60;38.80
31357;BME280;60001;48.404;11.738;2023-07-08T00:56:47;96523.25;;;22.58;38.26
31357;BME280;60001;48.404;11.738;2023-07-08T00:58:22;96526.16;;;22.53;38.93
31357;BME280;60001;48.404;11.738;2023-07-08T00:59:59;96526.94;;;22.54;38.50
31357;BME280;60001;48.404;11.738;2023-07-08T01:01:37;96526.16;;;22.53;38.41
31357;BME280;60001;48.404;11.738;2023-07-08T01:03:09;96529.16;;;22.52;38.69
31357;BME280;60001;48.404;11.738;2023-07-08T01:04:50;96525.66;;;22.51;39.05
31357;BME280;60001;48.404;11.738;2023-07-08T01:06:24;96517.25;;;22.53;38.94
31357;BME280;60001;48.404;11.738;2023-07-08T01:08:04;96519.81;;;22.49;38.57
31357;BME280;60001;48.404;11.738;2023-07-08T01:09:41;96516.19;;;22.45;38.80
31357;BME280;60001;48.404;11.738;2023-07-08T01:11:15;96519.06;;;22.40;38.24
31357;BME280;60001;48.404;11.738;2023-07-08T01:12:50;96516.69;;;22.38;39.08
31357;BME280;60001;48.404;11.738;2023-07-08T01:14:26;96517.34;;;22.35;38.61
31357;BME280;60001;48.404;11.738;2023-07-08T01:15:58;96511.81;;;22.32;38.43
31357;BME280;60001;48.404;11.738;2023-07-08T01:17:29;96517.84;;;22.29;38.32
31357;BME280;60001;48.404;11.738;2023-07-08T01:19:04;96506.91;;;22.25;38.63
31357;BME280;60001;48.404;11.738;2023-07-08T01:20:36;96520.69;;;22.24;39.04
31357;BME280;60001;48.404;11.738;2023-07-08T01:22:11;96514.06;;;22.21;39.49
31357;BME280;60001;48.404;11.738;2023-07-08T01:23:42;96512.16;;;22.22;39.74
31357;BME280;60001;48.404;11.738;2023-07-08T01:25:14;96508.69;;;22.21;39.84
31357;BME280;60001;48.404;11.738;2023-07-08T01:26:46;96513.28;;;22.21;39.54
31357;BME280;60001;48.404;11.738;2023-07-08T01:28:18;96515.00;;;22.16;39.51
31357;BME280;60001;48.404;11.738;2023-07-08T01:29:49;96505.69;;;22.14;40.02
31357;BME280;60001;48.404;11.738;2023-07-08T01:31:22;96506.31;;;22.11;39.48
31357;BME280;60001;48.404;11.738;2023-07-08T01:32:57;96504.75;;;22.10;39.97
31357;BME280;60001;48.404;11.738;2023-07-08T01:34:32;96518.97;;;22.10;39.72
31357;BME280;60001;48.404;11.738;2023-07-08T01:36:03;96509.00;;;22.11;39.69
31357;BME280;60001;48.404;11.738;2023-07-08T01:37:39;96518.97;;;22.10;39.77
31357;BME280;60001;48.404;11.738;2023-07-08T01:39:14;96517.69;;;22.08;40.12
31357;BME280;60001;48.404;11.738;2023-07-08T01:40:50;96523.91;;;22.08;39.76
31357;BME280;60001;48.404;11.738;2023-07-08T01:42:22;96519.59;;;22.07;40.12
31357;BME280;60001;48.404;11.738;2023-07-08T01:43:53;96530.97;;;22.04;39.99
31357;BME280;60001;48.404;11.738;2023-07-08T01:45:27;96531.16;;;21.99;40.69
31357;BME280;60001;48.404;11.738;2023-07-08T01:47:05;96528.81;;;21.98;40.44
31357;BME280;60001;48.404;11.738;2023-07-08T01:48:43;96530.06;;;22.00;40.62
31357;BME280;60001;48.404;11.738;2023-07-08T01:50:19;96528.16;;;22.01;40.42
31357;BME280;60001;48.404;11.738;2023-07-08T01:51:50;96529.72;;;22.02;40.75
31357;BME280;60001;48.404;11.738;2023-07-08T01:53:33;96533.53;;;22.01;40.62
31357;BME280;60001;48.404;11.738;2023-07-08T01:55:05;96529.88;;;21.97;40.60
31357;BME280;60001;48.404;11.738;2023-07-08T01:56:36;96528.31;;;21.96;40.71
31357;BME280;60001;48.404;11.738;2023-07-08T01:58:08;96529.88;;;21.97;41.03
31357;BME280;60001;48.404;11.738;2023-07-08T01:59:41;96525.31;;;21.97;40.77
31357;BME280;60001;48.404;11.738;2023-07-08T02:01:13;96529.28;;;21.91;41.44
31357;BME280;60001;48.404;11.738;2023-07-08T02:02:43;96536.56;;;21.91;41.11
31357;BME280;60001;48.404;11.738;2023-07-08T02:04:15;96533.72;;;21.87;41.37
31357;BME280;60001;48.404;11.738;2023-07-08T02:05:46;96527.88;;;21.85;41.65
31357;BME280;60001;48.404;11.738;2023-07-08T02:07:17;96504.16;;;21.61;41.10
31357;BME280;60001;48.404;11.738;2023-07-08T02:08:50;96520.75;;;21.80;41.10
31357;BME280;60001;48.404;11.738;2023-07-08T02:10:22;96529.75;;;21.76;41.05
31357;BME280;60001;48.404;11.738;2023-07-08T02:11:53;96522.66;;;21.71;40.92
31357;BME280;60001;48.404;11.738;2023-07-08T02:13:26;96524.56;;;21.71;41.03
31357;BME280;60001;48.404;11.738;2023-07-08T02:15:00;96522.16;;;21.69;40.96
31357;BME280;60001;48.404;11.738;2023-07-08T02:16:31;96522.03;;;21.66;41.25
31357;BME280;60001;48.404;11.738;2023-07-08T02:18:02;96519.66;;;21.55;41.22
31357;BME280;60001;48.404;11.738;2023-07-08T02:19:33;96517.78;;;21.56;41.40
31357;BME280;60001;48.404;11.738;2023-07-08T02:21:05;96508.28;;;21.50;41.25
31357;BME280;60001;48.404;11.738;2023-07-08T02:22:36;96504.31;;;21.47;41.53
31357;BME280;60001;48.404;11.738;2023-07-08T02:24:09;96507.50;;;21.49;41.44
31357;BME280;60001;48.404;11.738;2023-07-08T02:25:40;96510.19;;;21.49;41.27
31357;BME280;60001;48.404;11.738;2023-07-08T02:27:11;96513.97;;;21.48;41.80
31357;BME280;60001;48.404;11.738;2023-07-08T02:28:42;96510.19;;;21.49;41.75
31357;BME280;60001;48.404;11.738;2023-07-08T02:30:14;96512.38;;;21.47;41.97
31357;BME280;60001;48.404;11.738;2023-07-08T02:31:45;96511.75;;;21.42;41.58
31357;BME280;60001;48.404;11.738;2023-07-08T02:33:16;96512.06;;;21.40;41.97
31357;BME280;60001;48.404;11.738;2023-07-08T02:34:47;96507.34;;;21.37;42.22
31357;BME280;60001;48.404;11.738;2023-07-08T02:36:19;96506.56;;;21.37;42.10
31357;BME280;60001;48.404;11.738;2023-07-08T02:37:50;96507.81;;;21.30;41.75
31357;BME280;60001;48.404;11.738;2023-07-08T02:39:24;96505.44;;;21.38;42.29
31357;BME280;60001;48.404;11.738;2023-07-08T02:40:56;96505.75;;;21.36;41.77
31357;BME280;60001;48.404;11.738;2023-07-08T02:42:29;96499.91;;;21.34;41.98
31357;BME280;60001;48.404;11.738;2023-07-08T02:44:00;96511.13;;;21.36;42.08
31357;BME280;60001;48.404;11.738;2023-07-08T02:45:31;96501.66;;;21.39;42.38
31357;BME280;60001;48.404;11.738;2023-07-08T02:47:03;96503.41;;;21.43;42.12
31357;BME280;60001;48.404;11.738;2023-07-08T02:48:35;96516.03;;;21.43;42.61
31357;BME280;60001;48.404;11.738;2023-07-08T02:50:08;96509.88;;;21.42;42.33
31357;BME280;60001;48.404;11.738;2023-07-08T02:51:39;96515.84;;;21.48;42.63
31357;BME280;60001;48.404;11.738;2023-07-08T02:53:11;96518.53;;;21.48;42.09
31357;BME280;60001;48.404;11.738;2023-07-08T02:54:44;96512.88;;;21.49;42.21
31357;BME280;60001;48.404;11.738;2023-07-08T02:56:15;96510.19;;;21.49;42.35
31357;BME280;60001;48.404;11.738;2023-07-08T02:57:46;96504.03;;;21.49;42.13
31357;BME280;60001;48.404;11.738;2023-07-08T02:59:18;96505.75;;;21.45;42.82
31357;BME280;60001;48.404;11.738;2023-07-08T03:00:51;96499.59;;;21.44;42.62
31357;BME280;60001;48.404;11.738;2023-07-08T03:02:23;96500.06;;;21.38;42.05
31357;BME280;60001;48.404;11.738;2023-07-08T03:03:54;96498.97;;;21.30;42.57
31357;BME280;60001;48.404;11.738;2023-07-08T03:05:28;96505.13;;;21.30;43.01
31357;BME280;60001;48.404;11.738;2023-07-08T03:07:00;96510.63;;;21.34;42.53
31357;BME280;60001;48.404;11.738;2023-07-08T03:08:31;96509.84;;;21.33;42.61
31357;BME280;60001;48.404;11.738;2023-07-08T03:10:05;96509.25;;;21.37;42.88
31357;BME280;60001;48.404;11.738;2023-07-08T03:11:36;96507.34;;;21.37;43.22
31357;BME280;60001;48.404;11.738;2023-07-08T03:13:08;96510.50;;;21.39;42.67
31357;BME280;60001;48.404;11.738;2023-07-08T03:14:40;96515.88;;;21.39;42.69
31357;BME280;60001;48.404;11.738;2023-07-08T03:16:10;96507.34;;;21.37;43.16
31357;BME280;60001;48.404;11.738;2023-07-08T03:17:43;96509.56;;;21.35;42.81
31357;BME280;60001;48.404;11.738;2023-07-08T03:19:14;96509.38;;;21.31;42.83
31357;BME280;60001;48.404;11.738;2023-07-08T03:20:47;96509.84;;;21.33;42.66
31357;BME280;60001;48.404;11.738;2023-07-08T03:22:18;96511.28;;;21.31;42.84
31357;BME280;60001;48.404;11.738;2023-07-08T03:23:51;96506.22;;;21.29;43.13
31357;BME280;60001;48.404;11.738;2023-07-08T03:25:26;96503.66;;;21.24;43.49
31357;BME280;60001;48.404;11.738;2023-07-08T03:26:58;96506.03;;;21.26;43.25
31357;BME280;60001;48.404;11.738;2023-07-08T03:28:30;96518.53;;;21.22;43.18
31357;BME280;60001;48.404;11.738;2023-07-08T03:30:02;96517.09;;;21.16;43.48
31357;BME280;60001;48.404;11.738;2023-07-08T03:31:35;96512.66;;;21.20;43.18
31357;BME280;60001;48.404;11.738;2023-07-08T03:33:06;96514.72;;;21.23;43.61
31357;BME280;60001;48.404;11.738;2023-07-08T03:34:38;96506.34;;;21.24;43.05
31357;BME280;60001;48.404;11.738;2023-07-08T03:36:12;96508.06;;;21.20;43.50
31357;BME280;60001;48.404;11.738;2023-07-08T03:37:52;96508.38;;;21.19;43.37
31357;BME280;60001;48.404;11.738;2023-07-08T03:39:24;96508.25;;;21.15;43.21
31357;BME280;60001;48.404;11.738;2023-07-08T03:40:57;96506.66;;;21.14;43.14
31357;BME280;60001;48.404;11.738;2023-07-08T03:42:28;96502.84;;;21.06;43.16
31357;BME280;60001;48.404;11.738;2023-07-08T03:44:00;96505.84;;;21.14;43.21
31357;BME280;60001;48.404;11.738;2023-07-08T03:45:31;96513.63;;;21.15;42.96
31357;BME280;60001;48.404;11.738;2023-07-08T03:47:03;96503.97;;;21.14;43.17
31357;BME280;60001;48.404;11.738;2023-07-08T03:48:34;96505.22;;;21.17;43.87
31357;BME280;60001;48.404;11.738;2023-07-08T03:50:08;96505.38;;;21.20;44.10
31357;BME280;60001;48.404;11.738;2023-07-08T03:51:45;96499.22;;;21.20;44.01
31357;BME280;60001;48.404;11.738;2023-07-08T03:53:16;96503.97;;;21.23;43.55
31357;BME280;60001;48.404;11.738;2023-07-08T03:54:47;96499.88;;;21.25;43.13
31357;BME280;60001;48.404;11.738;2023-07-08T03:56:20;96507.00;;;21.21;44.17
31357;BME280;60001;48.404;11.738;2023-07-08T03:57:51;96497.03;;;21.22;43.68
31357;BME280;60001;48.404;11.738;2023-07-08T03:59:23;96497.31;;;21.20;44.08
31357;BME280;60001;48.404;11.738;2023-07-08T04:00:53;96494.31;;;21.13;43.53
31357;BME280;60001;48.404;11.738;2023-07-08T04:02:25;96497.31;;;21.12;44.04
31357;BME280;60001;48.404;11.738;2023-07-08T04:03:58;96498.28;;;21.16;43.75
31357;BME280;60001;48.404;11.738;2023-07-08T04:05:29;96504.59;;;21.20;43.34
31357;BME280;60001;48.404;11.738;2023-07-08T04:07:01;96495.94;;;21.23;43.97
31357;BME280;60001;48.404;11.738;2023-07-08T04:08:32;96497.66;;;21.27;43.28
31357;BME280;60001;48.404;11.738;2023-07-08T04:10:03;96496.59;;;21.28;43.49
31357;BME280;60001;48.404;11.738;2023-07-08T04:11:36;96494.97;;;21.27;43.58
31357;BME280;60001;48.404;11.738;2023-07-08T04:13:08;96489.78;;;21.22;43.56
31357;BME280;60001;48.404;11.738;2023-07-08T04:14:40;96496.41;;;21.25;43.98
31357;BME280;60001;48.404;11.738;2023-07-08T04:16:17;96490.69;;;21.26;43.47
31357;BME280;60001;48.404;11.738;2023-07-08T04:17:49;96497.06;;;21.30;43.88
31357;BME280;60001;48.404;11.738;2023-07-08T04:19:21;96495.31;;;21.34;43.51
31357;BME280;60001;48.404;11.738;2023-07-08T04:20:53;96494.53;;;21.34;43.49
31357;BME280;60001;48.404;11.738;2023-07-08T04:22:24;96498.31;;;21.33;43.19
31357;BME280;60001;48.404;11.738;2023-07-08T04:23:56;96494.16;;;21.27;43.48
31357;BME280;60001;48.404;11.738;2023-07-08T04:25:26;96500.53;;;21.31;43.82
31357;BME280;60001;48.404;11.738;2023-07-08T04:27:00;96503.22;;;21.31;44.02
31357;BME280;60001;48.404;11.738;2023-07-08T04:28:30;96506.34;;;21.24;43.49
31357;BME280;60001;48.404;11.738;2023-07-08T04:30:02;96502.56;;;21.25;44.31
31357;BME280;60001;48.404;11.738;2023-07-08T04:31:34;96511.41;;;21.26;43.65
31357;BME280;60001;48.404;11.738;2023-07-08T04:33:06;96506.56;;;21.28;43.74
31357;BME280;60001;48.404;11.738;2023-07-08T04:34:38;96507.47;;;21.32;43.92
31357;BME280;60001;48.404;11.738;2023-07-08T04:36:13;96516.00;;;21.34;44.47
31357;BME280;60001;48.404;11.738;2023-07-08T04:37:44;96521.56;;;21.38;44.76
31357;BME280;60001;48.404;11.738;2023-07-08T04:39:17;96513.97;;;21.40;44.79
31357;BME280;60001;48.404;11.738;2023-07-08T04:40:49;96514.13;;;21.43;44.99
31357;BME280;60001;48.404;11.738;2023-07-08T04:42:22;96515.25;;;21.42;44.68
31357;BME280;60001;48.404;11.738;2023-07-08T04:43:54;96523.91;;;21.39;43.67
31357;BME280;60001;48.404;11.738;2023-07-08T04:45:27;96519.19;;;21.36;44.52
31357;BME280;60001;48.404;11.738;2023-07-08T04:46:59;96524.38;;;21.41;44.19
31357;BME280;60001;48.404;11.738;2023-07-08T04:48:31;96531.19;;;21.47;44.24
31357;BME280;60001;48.404;11.738;2023-07-08T04:50:04;96527.72;;;21.47;44.06
31357;BME280;60001;48.404;11.738;2023-07-08T04:51:36;96527.72;;;21.47;44.27
31357;BME280;60001;48.404;11.738;2023-07-08T04:53:07;96532.31;;;21.46;44.27
31357;BME280;60001;48.404;11.738;2023-07-08T04:54:39;96530.41;;;21.47;44.85
31357;BME280;60001;48.404;11.738;2023-07-08T04:56:11;96534.97;;;21.46;44.83
31357;BME280;60001;48.404;11.738;2023-07-08T04:57:43;96538.78;;;21.45;45.04
31357;BME280;60001;48.404;11.738;2023-07-08T04:59:17;96535.91;;;21.42;44.81
31357;BME280;60001;48.404;11.738;2023-07-08T05:00:48;96537.81;;;21.41;44.49
31357;BME280;60001;48.404;11.738;2023-07-08T05:02:20;96535.63;;;21.43;44.97
31357;BME280;60001;48.404;11.738;2023-07-08T05:03:51;96540.03;;;21.48;45.07
31357;BME280;60001;48.404;11.738;2023-07-08T05:05:23;96541.16;;;21.47;45.29
31357;BME280;60001;48.404;11.738;2023-07-08T05:06:53;96543.50;;;21.48;45.00
31357;BME280;60001;48.404;11.738;2023-07-08T05:08:25;96548.28;;;21.51;45.34
31357;BME280;60001;48.404;11.738;2023-07-08T05:09:56;96553.78;;;21.55;45.46
31357;BME280;60001;48.404;11.738;2023-07-08T05:11:28;96550.16;;;21.59;44.75
31357;BME280;60001;48.404;11.738;2023-07-08T05:13:01;96551.75;;;21.60;45.01
31357;BME280;60001;48.404;11.738;2023-07-08T05:14:33;96549.84;;;21.61;44.76
31357;BME280;60001;48.404;11.738;2023-07-08T05:16:05;96563.91;;;21.67;44.63
31357;BME280;60001;48.404;11.738;2023-07-08T05:17:38;96562.03;;;21.67;45.22
31357;BME280;60001;48.404;11.738;2023-07-08T05:19:10;96562.47;;;21.69;45.04
31357;BME280;60001;48.404;11.738;2023-07-08T05:20:43;96571.50;;;21.73;45.29
31357;BME280;60001;48.404;11.738;2023-07-08T05:22:21;96569.94;;;21.72;45.57
31357;BME280;60001;48.404;11.738;2023-07-08T05:23:58;96568.50;;;21.66;46.37
31357;BME280;60001;48.404;11.738;2023-07-08T05:25:31;96576.88;;;21.73;46.49
31357;BME280;60001;48.404;11.738;2023-07-08T05:27:04;96572.16;;;21.70;45.73
31357;BME280;60001;48.404;11.738;2023-07-08T05:28:38;96580.22;;;21.70;46.19
31357;BME280;60001;48.404;11.738;2023-07-08T05:30:14;96588.28;;;21.70;46.26
31357;BME280;60001;48.404;11.738;2023-07-08T05:31:46;96587.16;;;21.71;46.89
31357;BME280;60001;48.404;11.738;2023-07-08T05:33:16;96582.72;;;21.67;47.26
31357;BME280;60001;48.404;11.738;2023-07-08T05:34:48;96589.53;;;21.64;46.79
31357;BME280;60001;48.404;11.738;2023-07-08T05:36:20;96598.84;;;21.67;47.36
31357;BME280;60001;48.404;11.738;2023-07-08T05:37:51;96592.22;;;21.73;47.87
31357;BME280;60001;48.404;11.738;2023-07-08T05:39:22;96590.31;;;21.73;47.32
31357;BME280;60001;48.404;11.738;2023-07-08T05:40:55;96594.44;;;21.71;47.47
31357;BME280;60001;48.404;11.738;2023-07-08T05:42:27;96594.59;;;21.74;47.11
31357;BME280;60001;48.404;11.738;2023-07-08T05:43:59;96593.19;;;21.77;47.24
31357;BME280;60001;48.404;11.738;2023-07-08T05:45:31;96592.06;;;21.78;47.43
31357;BME280;60001;48.404;11.738;2023-07-08T05:47:03;96587.94;;;21.80;46.97
31357;BME280;60001;48.404;11.738;2023-07-08T05:48:35;96587.00;;;21.85;46.67
31357;BME280;60001;48.404;11.738;2023-07-08T05:50:07;96582.56;;;21.80;46.88
31357;BME280;60001;48.404;11.738;2023-07-08T05:51:39;96583.53;;;21.84;46.93
31357;BME280;60001;48.404;11.738;2023-07-08T05:53:11;96579.41;;;21.87;45.99
31357;BME280;60001;48.404;11.738;2023-07-08T05:54:42;96580.66;;;21.89;45.68
31357;BME280;60001;48.404;11.738;2023-07-08T05:56:14;96574.66;;;21.93;45.97
31357;BME280;60001;48.404;11.738;2023-07-08T05:57:46;96568.03;;;21.99;45.59
31357;BME280;60001;48.404;11.738;2023-07-08T05:59:19;96565.94;;;22.04;45.91
31357;BME280;60001;48.404;11.738;2023-07-08T06:00:54;96569.44;;;22.05;45.91
31357;BME280;60001;48.404;11.738;2023-07-08T06:02:27;96577.19;;;22.06;45.67
31357;BME280;60001;48.404;11.738;2023-07-08T06:03:58;96577.50;;;22.05;45.84
31357;BME280;60001;48.404;11.738;2023-07-08T06:05:30;96579.38;;;22.04;45.08
31357;BME280;60001;48.404;11.738;2023-07-08T06:07:03;96578.47;;;22.09;45.31
31357;BME280;60001;48.404;11.738;2023-07-08T06:08:35;96575.47;;;22.10;45.32
31357;BME280;60001;48.404;11.738;2023-07-08T06:10:07;96569.28;;;22.10;45.50
31357;BME280;60001;48.404;11.738;2023-07-08T06:11:39;96572.44;;;22.21;45.33
31357;BME280;60001;48.404;11.738;2023-07-08T06:13:09;96571.16;;;22.18;45.77
31357;BME280;60001;48.404;11.738;2023-07-08T06:14:43;96569.09;;;22.24;45.11
31357;BME280;60001;48.404;11.738;2023-07-08T06:16:14;96568.00;;;22.25;44.81
31357;BME280;60001;48.404;11.738;2023-07-08T06:17:45;96555.50;;;22.29;44.90
31357;BME280;60001;48.404;11.738;2023-07-08T06:19:17;96558.34;;;22.32;44.21
31357;BME280;60001;48.404;11.738;2023-07-08T06:20:53;96563.22;;;22.39;44.27
31357;BME280;60001;48.404;11.738;2023-07-08T06:22:23;96557.19;;;22.42;44.56
31357;BME280;60001;48.404;11.738;2023-07-08T06:23:55;96565.72;;;22.44;43.88
31357;BME280;60001;48.404;11.738;2023-07-08T06:25:27;96573.63;;;22.49;44.15
31357;BME280;60001;48.404;11.738;2023-07-08T06:26:59;96565.41;;;22.54;44.02
31357;BME280;60001;48.404;11.738;2023-07-08T06:28:29;96574.06;;;22.60;43.86
31357;BME280;60001;48.404;11.738;2023-07-08T06:30:03;96573.09;;;22.64;44.41
31357;BME280;60001;48.404;11.738;2023-07-08T06:31:35;96576.53;;;22.74;43.87
31357;BME280;60001;48.404;11.738;2023-07-08T06:33:06;96569.88;;;22.80;44.57
31357;BME280;60001;48.404;11.738;2023-07-08T06:34:38;96568.78;;;22.89;44.41
31357;BME280;60001;48.404;11.738;2023-07-08T06:36:09;96557.50;;;22.96;44.63
31357;BME280;60001;48.404;11.738;2023-07-08T06:37:40;96547.00;;;23.03;43.96
31357;BME280;60001;48.404;11.738;2023-07-08T06:39:12;96550.09;;;23.14;43.07
31357;BME280;60001;48.404;11.738;2023-07-08T06:40:43;96546.44;;;23.18;43.08
31357;BME280;60001;48.404;11.738;2023-07-08T06:42:14;96551.63;;;23.23;43.47
31357;BME280;60001;48.404;11.738;2023-07-08T06:43:45;96543.66;;;23.27;43.08
31357;BME280;60001;48.404;11.738;2023-07-08T06:45:18;96550.97;;;23.27;42.46
31357;BME280;60001;48.404;11.738;2023-07-08T06:46:49;96546.88;;;23.20;42.73
31357;BME280;60001;48.404;11.738;2023-07-08T06:48:21;96544.00;;;23.25;43.16
31357;BME280;60001;48.404;11.738;2023-07-08T06:49:52;96553.47;;;23.32;42.51
31357;BME280;60001;48.404;11.738;2023-07-08T06:51:24;96540.66;;;23.29;42.85
31357;BME280;60001;48.404;11.738;2023-07-08T06:52:56;96543.81;;;23.31;42.58
31357;BME280;60001;48.404;11.738;2023-07-08T06:54:26;96549.00;;;23.36;42.00
31357;BME280;60001;48.404;11.738;2023-07-08T06:55:58;96548.72;;;23.29;41.96
31357;BME280;60001;48.404;11.738;2023-07-08T06:57:29;96549.00;;;23.36;42.99
31357;BME280;60001;48.404;11.738;2023-07-08T06:59:01;96547.31;;;23.31;42.65
31357;BME280;60001;48.404;11.738;2023-07-08T07:00:34;96550.34;;;23.30;43.12
31357;BME280;60001;48.404;11.738;2023-07-08T07:02:05;96555.50;;;23.35;43.12
31357;BME280;60001;48.404;11.738;2023-07-08T07:03:37;96559.13;;;23.39;42.92
31357;BME280;60001;48.404;11.738;2023-07-08T07:05:09;96557.69;;;23.41;42.90
31357;BME280;60001;48.404;11.738;2023-07-08T07:06:40;96560.38;;;23.41;43.03
31357;BME280;60001;48.404;11.738;2023-07-08T07:08:12;96557.50;;;23.46;42.94
31357;BME280;60001;48.404;11.738;2023-07-08T07:09:42;96561.91;;;23.51;43.08
31357;BME280;60001;48.404;11.738;2023-07-08T07:11:14;96556.63;;;23.55;43.49
31357;BME280;60001;48.404;11.738;2023-07-08T07:12:45;96560.91;;;23.56;42.45
31357;BME280;60001;48.404;11.738;2023-07-08T07:14:17;96556.16;;;23.61;42.37
31357;BME280;60001;48.404;11.738;2023-07-08T07:15:50;96557.88;;;23.66;42.74
31357;BME280;60001;48.404;11.738;2023-07-08T07:17:23;96559.56;;;23.70;42.91
31357;BME280;60001;48.404;11.738;2023-07-08T07:18:54;96571.44;;;23.90;43.19
31357;BME280;60001;48.404;11.738;2023-07-08T07:20:27;96575.97;;;23.98;42.72
31357;BME280;60001;48.404;11.738;2023-07-08T07:21:58;96577.56;;;23.99;43.25
31357;BME280;60001;48.404;11.738;2023-07-08T07:23:29;96577.00;;;24.06;41.89
31357;BME280;60001;48.404;11.738;2023-07-08T07:25:00;96580.28;;;23.99;41.53
31357;BME280;60001;48.404;11.738;2023-07-08T07:26:32;96577.78;;;23.94;41.39
31357;BME280;60001;48.404;11.738;2023-07-08T07:28:04;96587.28;;;23.92;41.46
31357;BME280;60001;48.404;11.738;2023-07-08T07:29:41;96592.69;;;23.92;42.32
31357;BME280;60001;48.404;11.738;2023-07-08T07:31:15;96585.72;;;23.91;41.83
31357;BME280;60001;48.404;11.738;2023-07-08T07:32:46;96585.72;;;23.91;41.09
31357;BME280;60001;48.404;11.738;2023-07-08T07:34:17;96588.94;;;23.84;41.87
31357;BME280;60001;48.404;11.738;2023-07-08T07:35:49;96594.81;;;23.86;42.00
31357;BME280;60001;48.404;11.738;2023-07-08T07:37:21;96584.56;;;23.79;41.94
31357;BME280;60001;48.404;11.738;2023-07-08T07:38:53;96588.75;;;23.68;42.20
31357;BME280;60001;48.404;11.738;2023-07-08T07:40:25;96590.50;;;23.64;42.77
31357;BME280;60001;48.404;11.738;2023-07-08T07:41:56;96592.75;;;23.62;43.33
31357;BME280;60001;48.404;11.738;2023-07-08T07:43:27;96594.03;;;23.65;43.38
31357;BME280;60001;48.404;11.738;2023-07-08T07:44:59;96599.22;;;23.70;42.63
31357;BME280;60001;48.404;11.738;2023-07-08T07:46:31;96595.38;;;23.71;42.53
31357;BME280;60001;48.404;11.738;2023-07-08T07:48:04;96598.91;;;23.71;43.36
31357;BME280;60001;48.404;11.738;2023-07-08T07:49:35;96592.38;;;23.72;43.70
31357;BME280;60001;48.404;11.738;2023-07-08T07:51:07;96596.31;;;23.75;42.84
31357;BME280;60001;48.404;11.738;2023-07-08T07:52:40;96602.50;;;23.75;42.70
31357;BME280;60001;48.404;11.738;2023-07-08T07:54:12;96596.91;;;23.81;43.31
31357;BME280;60001;48.404;11.738;2023-07-08T07:55:43;96604.88;;;23.77;42.90
31357;BME280;60001;48.404;11.738;2023-07-08T07:57:15;96605.97;;;23.76;43.62
31357;BME280;60001;48.404;11.738;2023-07-08T07:58:46;96604.88;;;23.77;44.07
31357;BME280;60001;48.404;11.738;2023-07-08T08:00:18;96604.34;;;23.84;43.43
31357;BME280;60001;48.404;11.738;2023-07-08T08:01:52;96609.53;;;23.89;43.46
31357;BME280;60001;48.404;11.738;2023-07-08T08:03:24;96604.28;;;23.92;43.57